createdAt,value
2022-09-28T00:01:10.914Z,99282.66
2022-09-28T00:03:39.073Z,99281.69
2022-09-28T00:06:10.256Z,99277.31
2022-09-28T00:08:38.754Z,99263.41
2022-09-28T00:11:13.879Z,99265.06
2022-09-28T00:13:42.985Z,99261.84
2022-09-28T00:16:14.586Z,99260.28
2022-09-28T00:18:43.059Z,99260.03
2022-09-28T00:21:13.473Z,99248.69
2022-09-28T00:23:56.395Z,99255.13
2022-09-28T00:26:26.257Z,99255.88
2022-09-28T00:28:54.640Z,99267.88
2022-09-28T00:31:23.808Z,99276.63
2022-09-28T00:33:52.268Z,99273.53
2022-09-28T00:36:20.512Z,99267.38
2022-09-28T00:38:48.593Z,99270.78
2022-09-28T00:41:18.899Z,99272.28
2022-09-28T00:43:48.512Z,99280.63
2022-09-28T00:46:21.169Z,99282.03
2022-09-28T00:48:54.577Z,99282.25
2022-09-28T00:51:23.152Z,99290.09
2022-09-28T00:53:52.844Z,99275.09
2022-09-28T00:56:26.287Z,99279.28
2022-09-28T00:58:56.140Z,99289.28
2022-09-28T01:01:24.440Z,99276.59
2022-09-28T01:03:52.584Z,99275.56
2022-09-28T01:06:24.198Z,99277.91
2022-09-28T01:08:55.980Z,99277.66
2022-09-28T01:11:24.152Z,99279.16
2022-09-28T01:13:57.793Z,99274.16
2022-09-28T01:16:34.215Z,99274.59
2022-09-28T01:19:13.894Z,99272.38
2022-09-28T01:21:52.469Z,99277.91
2022-09-28T01:24:40.944Z,99268.63
2022-09-28T01:27:17.171Z,99267.53
2022-09-28T01:29:49.610Z,99267.25
2022-09-28T01:32:43.699Z,99276.19
2022-09-28T01:35:16.221Z,99270.88
2022-09-28T01:37:52.023Z,99268.69
2022-09-28T01:40:22.827Z,99275.31
2022-09-28T01:42:58.645Z,99275.63
2022-09-28T01:45:31.375Z,99272.91
2022-09-28T01:48:03.473Z,99278.28
2022-09-28T01:50:36.418Z,99272.13
2022-09-28T01:53:11.603Z,99274.03
2022-09-28T01:55:43.578Z,99264.69
2022-09-28T01:58:17.169Z,99266.38
2022-09-28T02:00:50.706Z,99271.09
2022-09-28T02:03:22.678Z,99259.56
2022-09-28T02:05:54.861Z,99264.63
2022-09-28T02:08:28.747Z,99255.28
2022-09-28T02:11:03.675Z,99253.03
2022-09-28T02:13:36.692Z,99257.25
2022-09-28T02:16:12.014Z,99249.50
2022-09-28T02:18:40.374Z,99257.00
2022-09-28T02:21:14.355Z,99252.81
2022-09-28T02:23:53.795Z,99259.69
2022-09-28T02:26:26.717Z,99251.94
2022-09-28T02:28:56.370Z,99257.47
2022-09-28T02:31:24.663Z,99257.06
2022-09-28T02:33:55.037Z,99259.03
2022-09-28T02:36:23.505Z,99271.06
2022-09-28T02:38:52.290Z,99279.19
2022-09-28T02:41:31.370Z,99273.34
2022-09-28T02:44:11.701Z,99267.53
2022-09-28T02:46:46.790Z,99269.41
2022-09-28T02:49:23.394Z,99269.50
2022-09-28T02:52:04.719Z,99273.72
2022-09-28T02:54:48.673Z,99271.34
2022-09-28T02:57:32.672Z,99275.25
2022-09-28T03:00:08.240Z,99283.16
2022-09-28T03:02:45.284Z,99275.88
2022-09-28T03:05:20.853Z,99278.22
2022-09-28T03:07:58.606Z,99271.97
2022-09-28T03:10:35.288Z,99277.03
2022-09-28T03:13:05.019Z,99280.06
2022-09-28T03:15:36.350Z,99274.66
2022-09-28T03:18:04.701Z,99280.38
2022-09-28T03:20:34.851Z,99280.44
2022-09-28T03:25:51.282Z,99284.00
2022-09-28T03:28:19.640Z,99280.47
2022-09-28T03:30:49.242Z,99288.22
2022-09-28T03:33:17.367Z,99294.50
2022-09-28T03:35:48.355Z,99294.50
2022-09-28T03:38:17.037Z,99305.25
2022-09-28T03:40:45.626Z,99304.88
2022-09-28T03:43:13.846Z,99310.19
2022-09-28T03:45:41.941Z,99310.53
2022-09-28T03:48:11.437Z,99307.47
2022-09-28T03:50:39.620Z,99317.19
2022-09-28T03:53:08.062Z,99313.97
2022-09-28T03:55:36.471Z,99319.38
2022-09-28T03:58:04.543Z,99311.28
2022-09-28T04:00:32.964Z,99299.00
2022-09-28T04:03:01.114Z,99312.56
2022-09-28T04:05:30.575Z,99298.75
2022-09-28T04:07:58.966Z,99312.56
2022-09-28T04:10:27.483Z,99301.84
2022-09-28T04:12:56.239Z,99303.88
2022-09-28T04:15:24.442Z,99293.47
2022-09-28T04:17:52.962Z,99296.38
2022-09-28T04:20:21.306Z,99283.75
2022-09-28T04:22:50.822Z,99291.09
2022-09-28T04:25:18.931Z,99292.78
2022-09-28T04:28:04.342Z,99288.59
2022-09-28T04:30:32.441Z,99295.63
2022-09-28T04:33:00.593Z,99301.53
2022-09-28T04:35:28.668Z,99305.06
2022-09-28T04:37:58.522Z,99311.28
2022-09-28T04:40:26.858Z,99316.66
2022-09-28T04:42:56.402Z,99318.63
2022-09-28T04:45:26.200Z,99321.38
2022-09-28T04:47:54.693Z,99320.63
2022-09-28T04:50:22.843Z,99319.09
2022-09-28T04:52:50.955Z,99321.88
2022-09-28T04:55:20.854Z,99325.13
2022-09-28T04:57:48.886Z,99329.06
2022-09-28T05:00:17.360Z,99326.13
2022-09-28T05:02:45.796Z,99328.59
2022-09-28T05:05:13.970Z,99333.25
2022-09-28T05:07:42.093Z,99341.75
2022-09-28T05:10:10.470Z,99339.03
2022-09-28T05:12:40.060Z,99350.31
2022-09-28T05:15:08.813Z,99342.13
2022-09-28T05:17:36.880Z,99350.28
2022-09-28T05:20:05.598Z,99354.94
2022-09-28T05:22:34.609Z,99359.59
2022-09-28T05:25:03.018Z,99352.25
2022-09-28T05:27:31.140Z,99354.53
2022-09-28T05:30:00.705Z,99361.56
2022-09-28T05:32:28.901Z,99358.88
2022-09-28T05:34:56.999Z,99370.47
2022-09-28T05:37:25.107Z,99370.50
2022-09-28T05:39:53.361Z,99371.66
2022-09-28T05:42:21.472Z,99371.28
2022-09-28T05:44:49.564Z,99377.91
2022-09-28T05:47:19.117Z,99391.84
2022-09-28T05:49:47.196Z,99387.97
2022-09-28T05:52:15.552Z,99385.19
2022-09-28T05:54:43.646Z,99393.50
2022-09-28T05:57:11.725Z,99387.84
2022-09-28T05:59:39.853Z,99385.56
2022-09-28T06:02:08.561Z,99384.66
2022-09-28T06:04:38.174Z,99390.59
2022-09-28T06:07:06.360Z,99400.72
2022-09-28T06:09:34.525Z,99383.94
2022-09-28T06:12:02.841Z,99384.19
2022-09-28T06:14:31.179Z,99391.00
2022-09-28T06:16:59.379Z,99398.28
2022-09-28T06:19:27.556Z,99393.66
2022-09-28T06:21:59.273Z,99399.94
2022-09-28T06:24:27.678Z,99400.41
2022-09-28T06:26:55.885Z,99406.50
2022-09-28T06:29:24.007Z,99399.06
2022-09-28T06:31:52.614Z,99402.25
2022-09-28T06:34:21.628Z,99404.97
2022-09-28T06:36:49.877Z,99414.66
2022-09-28T06:39:19.519Z,99405.38
2022-09-28T06:41:47.639Z,99405.94
2022-09-28T06:44:15.842Z,99407.13
2022-09-28T06:46:43.918Z,99404.84
2022-09-28T06:49:15.064Z,99410.69
2022-09-28T06:51:47.414Z,99406.75
2022-09-28T06:54:16.174Z,99414.16
2022-09-28T06:56:45.670Z,99411.16
2022-09-28T06:59:13.807Z,99408.81
2022-09-28T07:01:42.108Z,99413.88
2022-09-28T07:04:10.263Z,99412.34
2022-09-28T07:06:38.637Z,99403.34
2022-09-28T07:09:23.381Z,99410.72
2022-09-28T07:11:56.905Z,99413.81
2022-09-28T07:14:45.905Z,99416.13
2022-09-28T07:17:14.786Z,99417.63
2022-09-28T07:19:43.421Z,99413.31
2022-09-28T07:22:18.956Z,99412.47
2022-09-28T07:24:48.645Z,99412.47
2022-09-28T07:27:18.147Z,99415.44
2022-09-28T07:29:46.584Z,99410.31
2022-09-28T07:32:14.646Z,99410.19
2022-09-28T07:34:43.903Z,99414.09
2022-09-28T07:37:13.513Z,99411.41
2022-09-28T07:39:55.466Z,99408.66
2022-09-28T07:42:25.497Z,99418.66
2022-09-28T07:44:54.445Z,99417.50
2022-09-28T07:47:29.760Z,99409.25
2022-09-28T07:50:02.102Z,99410.03
2022-09-28T07:52:30.416Z,99401.00
2022-09-28T07:54:59.797Z,99404.91
2022-09-28T07:57:32.328Z,99401.94
2022-09-28T08:00:02.339Z,99406.84
2022-09-28T08:02:33.037Z,99399.66
2022-09-28T08:05:01.116Z,99398.19
2022-09-28T08:07:29.557Z,99403.78
2022-09-28T08:09:57.686Z,99400.09
2022-09-28T08:12:25.935Z,99397.78
2022-09-28T08:14:55.718Z,99398.75
2022-09-28T08:17:23.797Z,99396.94
2022-09-28T08:20:10.505Z,99393.78
2022-09-28T08:22:38.754Z,99396.94
2022-09-28T08:25:08.459Z,99375.47
2022-09-28T08:27:36.766Z,99389.53
2022-09-28T08:30:07.531Z,99381.94
2022-09-28T08:32:35.883Z,99388.06
2022-09-28T08:35:04.045Z,99384.09
2022-09-28T08:37:32.108Z,99384.34
2022-09-28T08:40:00.216Z,99383.03
2022-09-28T08:42:36.083Z,99386.06
2022-09-28T08:45:12.410Z,99392.59
2022-09-28T08:48:10.207Z,99398.31
2022-09-28T08:50:50.384Z,99400.34
2022-09-28T08:53:32.383Z,99399.13
2022-09-28T08:56:04.038Z,99391.63
2022-09-28T08:58:37.741Z,99392.66
2022-09-28T09:01:11.852Z,99393.22
2022-09-28T09:03:42.085Z,99389.00
2022-09-28T09:06:23.344Z,99387.38
2022-09-28T09:09:03.348Z,99386.78
2022-09-28T09:11:47.704Z,99388.63
2022-09-28T09:14:54.812Z,99389.06
2022-09-28T09:17:38.964Z,99386.34
2022-09-28T09:20:18.799Z,99397.31
2022-09-28T09:22:57.980Z,99402.75
2022-09-28T09:25:29.859Z,99396.09
2022-09-28T09:28:12.342Z,99394.50
2022-09-28T09:30:50.445Z,99394.63
2022-09-28T09:33:37.159Z,99386.16
2022-09-28T09:36:16.802Z,99389.66
2022-09-28T09:39:00.188Z,99392.31
2022-09-28T09:41:42.804Z,99397.63
2022-09-28T09:44:33.841Z,99392.88
2022-09-28T09:47:08.303Z,99398.56
2022-09-28T09:49:42.390Z,99393.94
2022-09-28T09:52:20.618Z,99404.59
2022-09-28T09:54:52.613Z,99402.06
2022-09-28T09:57:24.060Z,99403.06
2022-09-28T09:59:52.550Z,99405.31
2022-09-28T10:02:26.569Z,99408.41
2022-09-28T10:05:00.966Z,99414.22
2022-09-28T10:07:41.403Z,99409.38
2022-09-28T10:10:16.229Z,99406.72
2022-09-28T10:12:44.968Z,99405.28
2022-09-28T10:15:17.239Z,99398.94
2022-09-28T10:17:45.393Z,99406.03
2022-09-28T10:20:17.167Z,99408.81
2022-09-28T10:22:45.536Z,99397.25
2022-09-28T10:25:15.042Z,99397.16
2022-09-28T10:27:46.693Z,99410.19
2022-09-28T10:30:19.036Z,99409.38
2022-09-28T10:32:49.012Z,99401.72
2022-09-28T10:35:27.066Z,99406.50
2022-09-28T10:38:04.548Z,99408.88
2022-09-28T10:40:43.570Z,99417.84
2022-09-28T10:43:23.043Z,99405.72
2022-09-28T10:46:02.081Z,99398.81
2022-09-28T10:48:34.955Z,99397.59
2022-09-28T10:51:07.451Z,99393.78
2022-09-28T10:53:37.609Z,99380.69
2022-09-28T10:56:08.890Z,99383.34
2022-09-28T10:58:42.005Z,99382.50
2022-09-28T11:01:13.908Z,99391.41
2022-09-28T11:03:56.445Z,99379.50
2022-09-28T11:06:28.438Z,99392.81
2022-09-28T11:08:58.798Z,99391.19
2022-09-28T11:11:27.294Z,99379.13
2022-09-28T11:14:00.541Z,99382.63
2022-09-28T11:16:30.493Z,99378.34
2022-09-28T11:19:00.376Z,99379.53
2022-09-28T11:21:32.624Z,99377.28
2022-09-28T11:24:08.813Z,99373.88
2022-09-28T11:26:43.230Z,99375.53
2022-09-28T11:29:28.471Z,99381.91
2022-09-28T11:32:03.476Z,99383.84
2022-09-28T11:34:57.623Z,99382.75
2022-09-28T11:37:42.967Z,99379.03
2022-09-28T11:40:24.452Z,99388.38
2022-09-28T11:45:48.957Z,99385.38
2022-09-28T11:48:20.177Z,99365.44
2022-09-28T11:50:53.987Z,99374.28
2022-09-28T11:53:30.312Z,99368.72
2022-09-28T11:56:08.698Z,99376.59
2022-09-28T11:58:41.991Z,99357.91
2022-09-28T12:01:22.091Z,99375.81
2022-09-28T12:03:55.031Z,99370.75
2022-09-28T12:06:29.155Z,99369.13
2022-09-28T12:09:07.076Z,99383.16
2022-09-28T12:11:40.431Z,99376.66
2022-09-28T12:14:16.856Z,99375.06
2022-09-28T12:17:05.686Z,99383.19
2022-09-28T12:19:40.819Z,99363.25
2022-09-28T12:22:18.479Z,99371.84
2022-09-28T12:24:52.251Z,99368.66
2022-09-28T12:27:28.545Z,99374.75
2022-09-28T12:30:03.597Z,99377.09
2022-09-28T12:32:37.546Z,99379.91
2022-09-28T12:35:13.327Z,99372.81
2022-09-28T12:38:00.013Z,99373.09
2022-09-28T12:40:49.240Z,99393.25
2022-09-28T12:43:34.333Z,99387.03
2022-09-28T12:46:37.700Z,99386.09
2022-09-28T12:52:29.551Z,99379.47
2022-09-28T12:55:29.323Z,99364.63
2022-09-28T12:58:04.930Z,99366.31
2022-09-28T13:00:41.213Z,99367.97
2022-09-28T13:03:47.412Z,99366.28
2022-09-28T13:06:34.620Z,99372.69
2022-09-28T13:09:32.271Z,99376.19
2022-09-28T13:12:15.996Z,99374.75
2022-09-28T13:15:14.248Z,99378.69
2022-09-28T13:17:50.639Z,99372.53
2022-09-28T13:20:41.358Z,99381.19
2022-09-28T13:23:16.269Z,99380.66
2022-09-28T13:25:49.647Z,99382.06
2022-09-28T13:28:25.046Z,99376.28
2022-09-28T13:33:36.985Z,99377.91
2022-09-28T13:36:06.136Z,99386.53
2022-09-28T13:38:55.625Z,99394.13
2022-09-28T13:41:29.176Z,99384.75
2022-09-28T13:44:17.462Z,99386.00
2022-09-28T13:47:00.107Z,99388.50
2022-09-28T13:49:37.718Z,99392.47
2022-09-28T13:52:10.811Z,99387.44
2022-09-28T13:54:53.829Z,99385.94
2022-09-28T13:57:27.442Z,99391.13
2022-09-28T14:00:10.632Z,99401.75
2022-09-28T14:02:45.753Z,99413.81
2022-09-28T14:05:53.337Z,99416.09
2022-09-28T14:08:35.397Z,99417.31
2022-09-28T14:11:26.208Z,99422.78
2022-09-28T14:14:03.090Z,99417.34
2022-09-28T14:16:33.179Z,99417.34
2022-09-28T14:19:08.522Z,99420.50
2022-09-28T14:22:09.159Z,99423.31
2022-09-28T14:25:01.760Z,99429.16
2022-09-28T14:28:05.440Z,99429.94
2022-09-28T14:30:49.658Z,99433.06
2022-09-28T14:33:26.763Z,99432.31
2022-09-28T14:35:58.893Z,99438.97
2022-09-28T14:38:49.847Z,99441.69
2022-09-28T14:41:34.309Z,99440.19
2022-09-28T14:44:12.705Z,99447.19
2022-09-28T14:46:44.808Z,99441.78
2022-09-28T14:49:49.109Z,99445.66
2022-09-28T14:52:39.323Z,99438.69
2022-09-28T14:55:15.329Z,99446.47
2022-09-28T14:57:44.047Z,99446.09
2022-09-28T15:00:21.400Z,99452.31
2022-09-28T15:02:52.761Z,99454.69
2022-09-28T15:05:25.661Z,99455.44
2022-09-28T15:07:56.145Z,99456.59
2022-09-28T15:10:28.390Z,99464.00
2022-09-28T15:12:58.256Z,99470.25
2022-09-28T15:15:31.270Z,99469.84
2022-09-28T15:18:09.753Z,99475.66
2022-09-28T15:20:43.670Z,99474.53
2022-09-28T15:26:08.653Z,99474.13
2022-09-28T15:28:39.420Z,99476.84
2022-09-28T15:31:07.562Z,99486.97
2022-09-28T15:33:54.017Z,99486.19
2022-09-28T15:36:25.658Z,99488.13
2022-09-28T15:38:58.207Z,99486.53
2022-09-28T15:41:29.017Z,99488.88
2022-09-28T15:44:36.710Z,99499.75
2022-09-28T15:47:16.802Z,99501.66
2022-09-28T15:49:58.700Z,99500.91
2022-09-28T15:52:34.115Z,99502.41
2022-09-28T15:55:05.358Z,99508.66
2022-09-28T15:57:38.216Z,99505.53
2022-09-28T16:00:23.046Z,99508.22
2022-09-28T16:03:03.318Z,99507.00
2022-09-28T16:05:41.262Z,99505.06
2022-09-28T16:08:21.476Z,99503.13
2022-09-28T16:10:58.421Z,99506.97
2022-09-28T16:13:28.198Z,99500.00
2022-09-28T16:15:59.939Z,99503.91
2022-09-28T16:18:30.074Z,99512.41
2022-09-28T16:21:19.306Z,99509.28
2022-09-28T16:23:52.255Z,99515.47
2022-09-28T16:26:32.281Z,99509.22
2022-09-28T16:29:07.152Z,99514.63
2022-09-28T16:31:36.286Z,99509.19
2022-09-28T16:34:20.227Z,99509.94
2022-09-28T16:36:50.382Z,99518.47
2022-09-28T16:39:19.925Z,99516.91
2022-09-28T16:41:51.914Z,99521.16
2022-09-28T16:44:26.643Z,99521.16
2022-09-28T16:46:57.135Z,99526.97
2022-09-28T16:49:26.933Z,99526.56
2022-09-28T16:51:55.398Z,99524.22
2022-09-28T16:54:42.703Z,99530.81
2022-09-28T16:57:13.350Z,99525.78
2022-09-28T16:59:42.885Z,99531.59
2022-09-28T17:02:42.128Z,99528.81
2022-09-28T17:05:08.102Z,99530.66
2022-09-28T17:07:36.469Z,99546.13
2022-09-28T17:10:04.819Z,99547.19
2022-09-28T17:12:32.948Z,99542.91
2022-09-28T17:15:02.582Z,99539.75
2022-09-28T17:17:31.598Z,99546.31
2022-09-28T17:19:59.758Z,99550.97
2022-09-28T17:22:27.876Z,99557.16
2022-09-28T17:24:56.015Z,99552.16
2022-09-28T17:27:24.067Z,99561.06
2022-09-28T17:29:52.152Z,99557.94
2022-09-28T17:32:21.688Z,99561.06
2022-09-28T17:35:00.944Z,99558.03
2022-09-28T17:37:37.885Z,99565.44
2022-09-28T17:40:17.049Z,99568.19
2022-09-28T17:42:46.655Z,99558.88
2022-09-28T17:45:15.589Z,99568.19
2022-09-28T17:47:45.664Z,99569.28
2022-09-28T17:50:22.727Z,99569.25
2022-09-28T17:52:54.785Z,99567.28
2022-09-28T17:55:24.319Z,99575.38
2022-09-28T17:57:52.853Z,99576.13
2022-09-28T18:00:21.205Z,99585.00
2022-09-28T18:02:52.292Z,99596.28
2022-09-28T18:05:20.442Z,99591.56
2022-09-28T18:07:49.894Z,99596.19
2022-09-28T18:10:21.413Z,99597.63
2022-09-28T18:12:50.171Z,99596.03
2022-09-28T18:15:19.936Z,99595.28
2022-09-28T18:17:48.025Z,99596.88
2022-09-28T18:20:17.538Z,99590.69
2022-09-28T18:22:45.629Z,99594.13
2022-09-28T18:25:13.751Z,99592.19
2022-09-28T18:27:41.867Z,99593.31
2022-09-28T18:30:10.782Z,99589.84
2022-09-28T18:32:39.044Z,99591.81
2022-09-28T18:35:10.252Z,99585.28
2022-09-28T18:37:40.139Z,99589.25
2022-09-28T18:40:10.392Z,99576.50
2022-09-28T18:42:38.759Z,99582.28
2022-09-28T18:45:08.555Z,99586.47
2022-09-28T18:47:37.046Z,99575.19
2022-09-28T18:50:05.871Z,99568.19
2022-09-28T18:52:37.335Z,99573.59
2022-09-28T18:55:08.237Z,99572.75
2022-09-28T18:57:36.833Z,99573.41
2022-09-28T19:00:07.255Z,99570.25
2022-09-28T19:02:35.502Z,99567.47
2022-09-28T19:05:03.741Z,99567.81
2022-09-28T19:07:31.829Z,99560.34
2022-09-28T19:09:59.936Z,99563.97
2022-09-28T19:12:29.457Z,99570.69
2022-09-28T19:14:59.670Z,99573.34
2022-09-28T19:17:28.056Z,99567.91
2022-09-28T19:19:56.274Z,99569.41
2022-09-28T19:22:24.395Z,99571.03
2022-09-28T19:24:52.522Z,99562.94
2022-09-28T19:27:20.710Z,99566.44
2022-09-28T19:29:50.635Z,99571.03
2022-09-28T19:32:18.735Z,99579.50
2022-09-28T19:34:46.869Z,99579.13
2022-09-28T19:37:14.998Z,99582.50
2022-09-28T19:39:43.116Z,99587.13
2022-09-28T19:42:12.383Z,99581.72
2022-09-28T19:44:40.464Z,99579.50
2022-09-28T19:47:11.694Z,99574.84
2022-09-28T19:49:41.211Z,99581.47
2022-09-28T19:52:15.890Z,99575.28
2022-09-28T19:54:45.936Z,99580.38
2022-09-28T19:57:15.993Z,99584.19
2022-09-28T19:59:44.340Z,99588.38
2022-09-28T20:02:15.435Z,99584.06
2022-09-28T20:04:43.618Z,99589.50
2022-09-28T20:07:11.735Z,99589.50
2022-09-28T20:09:39.928Z,99581.38
2022-09-28T20:12:08.036Z,99581.72
2022-09-28T20:14:38.173Z,99580.47
2022-09-28T20:17:08.533Z,99593.03
2022-09-28T20:19:38.230Z,99593.78
2022-09-28T20:22:06.431Z,99594.91
2022-09-28T20:24:34.571Z,99596.06
2022-09-28T20:27:02.920Z,99587.59
2022-09-28T20:29:33.495Z,99593.03
2022-09-28T20:32:02.260Z,99588.34
2022-09-28T20:34:30.407Z,99585.16
2022-09-28T20:36:59.909Z,99584.56
2022-09-28T20:39:28.041Z,99586.50
2022-09-28T20:41:56.866Z,99591.88
2022-09-28T20:44:25.084Z,99583.69
2022-09-28T20:46:53.409Z,99583.72
2022-09-28T20:49:21.765Z,99583.31
2022-09-28T20:51:50.000Z,99585.97
2022-09-28T20:54:19.607Z,99586.28
2022-09-28T20:56:48.367Z,99600.16
2022-09-28T20:59:16.646Z,99595.88
2022-09-28T21:01:44.934Z,99592.81
2022-09-28T21:04:13.410Z,99594.91
2022-09-28T21:06:43.047Z,99602.56
2022-09-28T21:09:13.403Z,99600.16
2022-09-28T21:11:43.099Z,99600.78
2022-09-28T21:14:11.348Z,99602.63
2022-09-28T21:16:39.635Z,99596.75
2022-09-28T21:19:08.115Z,99600.59
2022-09-28T21:21:36.333Z,99605.72
2022-09-28T21:24:04.804Z,99613.41
2022-09-28T21:26:33.565Z,99613.75
2022-09-28T21:29:05.416Z,99613.63
2022-09-28T21:31:38.567Z,99617.91
2022-09-28T21:34:06.906Z,99620.78
2022-09-28T21:36:35.482Z,99620.03
2022-09-28T21:39:08.268Z,99622.00
2022-09-28T21:41:38.549Z,99623.19
2022-09-28T21:44:08.609Z,99615.00
2022-09-28T21:46:37.211Z,99620.03
2022-09-28T21:49:07.562Z,99615.38
2022-09-28T21:51:36.447Z,99619.25
2022-09-28T21:54:04.820Z,99614.63
2022-09-28T21:56:32.945Z,99612.34
2022-09-28T21:59:01.442Z,99610.41
2022-09-28T22:01:31.861Z,99612.81
2022-09-28T22:04:00.233Z,99620.22
2022-09-28T22:06:29.347Z,99609.31
2022-09-28T22:08:57.754Z,99607.75
2022-09-28T22:11:28.152Z,99603.16
2022-09-28T22:13:58.058Z,99602.75
2022-09-28T22:16:29.092Z,99597.75
2022-09-28T22:18:59.149Z,99594.63
2022-09-28T22:21:28.838Z,99596.34
2022-09-28T22:24:01.031Z,99598.19
2022-09-28T22:26:29.702Z,99598.81
2022-09-28T22:28:59.200Z,99600.69
2022-09-28T22:31:30.043Z,99605.72
2022-09-28T22:33:59.998Z,99607.19
2022-09-28T22:36:28.781Z,99608.03
2022-09-28T22:38:58.504Z,99602.00
2022-09-28T22:41:27.184Z,99600.88
2022-09-28T22:43:57.355Z,99589.34
2022-09-28T22:46:27.215Z,99591.81
2022-09-28T22:48:57.088Z,99589.75
2022-09-28T22:51:30.008Z,99587.00
2022-09-28T22:53:58.504Z,99589.63
2022-09-28T22:56:26.877Z,99590.38
2022-09-28T22:58:55.151Z,99584.56
2022-09-28T23:01:25.436Z,99589.16
2022-09-28T23:03:54.720Z,99588.78
2022-09-28T23:06:24.278Z,99578.03
2022-09-28T23:08:54.340Z,99579.22
2022-09-28T23:11:22.606Z,99583.44
2022-09-28T23:13:51.595Z,99570.69
2022-09-28T23:16:20.347Z,99573.84
2022-09-28T23:18:49.295Z,99573.06
2022-09-28T23:21:19.476Z,99580.84
2022-09-28T23:23:55.355Z,99576.59
2022-09-28T23:26:25.988Z,99583.91
2022-09-28T23:28:54.795Z,99580.03
2022-09-28T23:31:24.892Z,99577.69
2022-09-28T23:33:57.473Z,99578.81
2022-09-28T23:36:25.725Z,99583.44
2022-09-28T23:38:55.569Z,99581.03
2022-09-28T23:41:23.697Z,99573.28
2022-09-28T23:43:52.041Z,99579.81
2022-09-28T23:46:21.237Z,99564.78
2022-09-28T23:48:50.034Z,99572.56
2022-09-28T23:51:18.325Z,99572.16
2022-09-28T23:53:47.113Z,99559.03
2022-09-28T23:56:16.631Z,99560.19
2022-09-28T23:58:45.141Z,99558.16
